Main page
Satellite images 15-day forecastsClimateMarine weather Cyclones Lightning AirportsFAQ Newsletter About
Weather : Europe Africa North America South America Asia Australia-Oceania Others
Languages Contact

Cologne, Germany

Flughafen Köln/Bonn

latitude: 50-52N, longitude: 007-10E, elevation: 91 m


METAR: EDDK 221920Z 25010G20KT 9999 OVC022 12/08 Q1019 NOSIG
TAF: EDDK 221700Z 2218/2324 24012KT 9999 BKN020 PROB30 TEMPO 2218/2318 24015G25KT

Time: 20:26 (19:26 UTC)

Current weather observation

The report was made 6 minutes ago, at 19:20 UTC
Wind 10 kt from the West/Southwest with gusts up to 20 kt
Temperature 12°C
Humidity 76%
Pressure 1019 hPa
Visibility 10 km or more
Overcast at a height of 2200 ft

Change units

Forecast

The report was made 2 hours and 26 minutes ago, at 17:00 UTC
Forecast valid from 22 at 18 UTC to 23 at 24 UTC
Wind 12 kt from the West/Southwest
Visibility 10 km or more
Broken clouds at a height of 2000 ft
Probability 30% :
Temporary
from 22 at 18 UTC to 23 at 18 UTC
Wind 15 kt from the West/Southwest with gusts up to 25 kt
The information on this site is subject to a disclaimer
Weather : Europe Africa North America South America Asia Australia-Oceania Others
Satellite images 15-day forecastsClimateMarine weather Cyclones Lightning AirportsFAQ Languages Contact Newsletter About